sensor_id;sensor_type;location;lat;lon;timestamp;temperature;humidity
10472;DHT22;5283;48.876;8.962;2023-07-16T00:02:04;18.10;99.90
10472;DHT22;5283;48.876;8.962;2023-07-16T00:04:32;18.10;99.90
10472;DHT22;5283;48.876;8.962;2023-07-16T00:07:00;18.00;99.90
10472;DHT22;5283;48.876;8.962;2023-07-16T00:09:28;17.90;99.90
10472;DHT22;5283;48.876;8.962;2023-07-16T00:11:55;17.90;99.90
10472;DHT22;5283;48.876;8.962;2023-07-16T00:14:22;17.80;99.90
10472;DHT22;5283;48.876;8.962;2023-07-16T00:16:49;17.80;99.90
10472;DHT22;5283;48.876;8.962;2023-07-16T00:19:15;17.80;99.90
10472;DHT22;5283;48.876;8.962;2023-07-16T00:21:42;17.80;99.90
10472;DHT22;5283;48.876;8.962;2023-07-16T00:24:09;17.80;99.90
10472;DHT22;5283;48.876;8.962;2023-07-16T00:26:36;17.70;99.90
10472;DHT22;5283;48.876;8.962;2023-07-16T00:29:02;17.60;99.90
10472;DHT22;5283;48.876;8.962;2023-07-16T00:31:30;17.60;99.90
10472;DHT22;5283;48.876;8.962;2023-07-16T00:33:56;17.60;99.90
10472;DHT22;5283;48.876;8.962;2023-07-16T00:36:24;17.60;99.90
10472;DHT22;5283;48.876;8.962;2023-07-16T00:38:51;17.50;99.90
10472;DHT22;5283;48.876;8.962;2023-07-16T00:41:18;17.60;99.90
10472;DHT22;5283;48.876;8.962;2023-07-16T00:43:44;17.50;99.90
10472;DHT22;5283;48.876;8.962;2023-07-16T00:46:12;17.50;99.90
10472;DHT22;5283;48.876;8.962;2023-07-16T00:48:40;17.60;99.90
10472;DHT22;5283;48.876;8.962;2023-07-16T00:51:08;17.60;99.90
10472;DHT22;5283;48.876;8.962;2023-07-16T00:53:35;17.70;99.90
10472;DHT22;5283;48.876;8.962;2023-07-16T00:56:02;17.70;99.90
10472;DHT22;5283;48.876;8.962;2023-07-16T00:58:29;17.70;99.90
10472;DHT22;5283;48.876;8.962;2023-07-16T01:00:55;17.70;99.90
10472;DHT22;5283;48.876;8.962;2023-07-16T01:03:22;17.70;99.90
10472;DHT22;5283;48.876;8.962;2023-07-16T01:08:38;17.60;99.90
10472;DHT22;5283;48.876;8.962;2023-07-16T01:11:07;17.50;99.90
10472;DHT22;5283;48.876;8.962;2023-07-16T01:13:34;17.50;99.90
10472;DHT22;5283;48.876;8.962;2023-07-16T01:16:02;17.40;99.90
10472;DHT22;5283;48.876;8.962;2023-07-16T01:18:28;17.40;99.90
10472;DHT22;5283;48.876;8.962;2023-07-16T01:20:55;17.40;99.90
10472;DHT22;5283;48.876;8.962;2023-07-16T01:29:27;17.40;99.90
10472;DHT22;5283;48.876;8.962;2023-07-16T01:31:58;17.30;99.90
10472;DHT22;5283;48.876;8.962;2023-07-16T01:34:28;17.20;99.90
10472;DHT22;5283;48.876;8.962;2023-07-16T01:36:55;17.10;99.90
10472;DHT22;5283;48.876;8.962;2023-07-16T01:39:22;17.00;99.90
10472;DHT22;5283;48.876;8.962;2023-07-16T01:41:49;17.00;99.90
10472;DHT22;5283;48.876;8.962;2023-07-16T01:44:16;16.90;99.90
10472;DHT22;5283;48.876;8.962;2023-07-16T01:46:43;16.90;99.90
10472;DHT22;5283;48.876;8.962;2023-07-16T01:49:10;16.90;99.90
10472;DHT22;5283;48.876;8.962;2023-07-16T01:51:37;16.80;99.90
10472;DHT22;5283;48.876;8.962;2023-07-16T01:54:04;16.70;99.90
10472;DHT22;5283;48.876;8.962;2023-07-16T01:56:30;16.70;99.90
10472;DHT22;5283;48.876;8.962;2023-07-16T01:58:57;16.60;99.90
10472;DHT22;5283;48.876;8.962;2023-07-16T02:01:24;16.60;99.90
10472;DHT22;5283;48.876;8.962;2023-07-16T02:03:51;16.60;99.90
10472;DHT22;5283;48.876;8.962;2023-07-16T02:06:18;16.60;99.90
10472;DHT22;5283;48.876;8.962;2023-07-16T02:08:45;16.70;99.90
10472;DHT22;5283;48.876;8.962;2023-07-16T02:11:12;16.70;99.90
10472;DHT22;5283;48.876;8.962;2023-07-16T02:13:39;16.60;99.90
10472;DHT22;5283;48.876;8.962;2023-07-16T02:16:06;16.50;99.90
10472;DHT22;5283;48.876;8.962;2023-07-16T02:18:33;16.50;99.90
10472;DHT22;5283;48.876;8.962;2023-07-16T02:20:59;16.50;99.90
10472;DHT22;5283;48.876;8.962;2023-07-16T02:23:28;16.60;99.90
10472;DHT22;5283;48.876;8.962;2023-07-16T02:25:55;16.60;99.90
10472;DHT22;5283;48.876;8.962;2023-07-16T02:28:22;16.50;99.90
10472;DHT22;5283;48.876;8.962;2023-07-16T02:30:49;16.50;99.90
10472;DHT22;5283;48.876;8.962;2023-07-16T02:33:17;16.50;99.90
10472;DHT22;5283;48.876;8.962;2023-07-16T02:35:50;16.50;99.90
10472;DHT22;5283;48.876;8.962;2023-07-16T02:38:18;16.50;99.90
10472;DHT22;5283;48.876;8.962;2023-07-16T02:40:45;16.50;99.90
10472;DHT22;5283;48.876;8.962;2023-07-16T02:43:13;16.50;99.90
10472;DHT22;5283;48.876;8.962;2023-07-16T02:45:40;16.50;99.90
10472;DHT22;5283;48.876;8.962;2023-07-16T02:48:08;16.50;99.90
10472;DHT22;5283;48.876;8.962;2023-07-16T02:50:35;16.50;99.90
10472;DHT22;5283;48.876;8.962;2023-07-16T02:53:07;16.50;99.90
10472;DHT22;5283;48.876;8.962;2023-07-16T02:55:37;16.50;99.90
10472;DHT22;5283;48.876;8.962;2023-07-16T02:58:04;16.40;99.90
10472;DHT22;5283;48.876;8.962;2023-07-16T03:00:31;16.40;99.90
10472;DHT22;5283;48.876;8.962;2023-07-16T03:02:58;16.30;99.90
10472;DHT22;5283;48.876;8.962;2023-07-16T03:05:26;16.30;99.90
10472;DHT22;5283;48.876;8.962;2023-07-16T03:07:54;16.30;99.90
10472;DHT22;5283;48.876;8.962;2023-07-16T03:10:21;16.40;99.90
10472;DHT22;5283;48.876;8.962;2023-07-16T03:12:48;16.40;99.90
10472;DHT22;5283;48.876;8.962;2023-07-16T03:15:15;16.50;99.90
10472;DHT22;5283;48.876;8.962;2023-07-16T03:17:42;16.50;99.90
10472;DHT22;5283;48.876;8.962;2023-07-16T03:20:09;16.50;99.90
10472;DHT22;5283;48.876;8.962;2023-07-16T03:22:36;16.40;99.90
10472;DHT22;5283;48.876;8.962;2023-07-16T03:25:03;16.30;99.90
10472;DHT22;5283;48.876;8.962;2023-07-16T03:27:31;16.30;99.90
10472;DHT22;5283;48.876;8.962;2023-07-16T03:29:58;16.30;99.90
10472;DHT22;5283;48.876;8.962;2023-07-16T03:32:24;16.20;99.90
10472;DHT22;5283;48.876;8.962;2023-07-16T03:34:56;16.10;99.90
10472;DHT22;5283;48.876;8.962;2023-07-16T03:37:23;16.00;99.90
10472;DHT22;5283;48.876;8.962;2023-07-16T03:39:50;15.90;99.90
10472;DHT22;5283;48.876;8.962;2023-07-16T03:42:17;16.00;99.90
10472;DHT22;5283;48.876;8.962;2023-07-16T03:44:44;16.00;99.90
10472;DHT22;5283;48.876;8.962;2023-07-16T03:47:11;16.00;99.90
10472;DHT22;5283;48.876;8.962;2023-07-16T03:49:38;16.00;99.90
10472;DHT22;5283;48.876;8.962;2023-07-16T03:52:05;16.00;99.90
10472;DHT22;5283;48.876;8.962;2023-07-16T03:54:32;16.00;99.90
10472;DHT22;5283;48.876;8.962;2023-07-16T03:56:59;16.00;99.90
10472;DHT22;5283;48.876;8.962;2023-07-16T03:59:25;16.00;99.90
10472;DHT22;5283;48.876;8.962;2023-07-16T04:01:52;16.00;99.90
10472;DHT22;5283;48.876;8.962;2023-07-16T04:04:19;16.00;99.90
10472;DHT22;5283;48.876;8.962;2023-07-16T04:06:46;16.00;99.90
10472;DHT22;5283;48.876;8.962;2023-07-16T04:09:12;16.00;99.90
10472;DHT22;5283;48.876;8.962;2023-07-16T04:11:39;16.00;99.90
10472;DHT22;5283;48.876;8.962;2023-07-16T04:14:06;16.00;99.90
10472;DHT22;5283;48.876;8.962;2023-07-16T04:16:33;16.00;99.90
10472;DHT22;5283;48.876;8.962;2023-07-16T04:18:59;16.00;99.90
10472;DHT22;5283;48.876;8.962;2023-07-16T04:21:26;16.00;99.90
10472;DHT22;5283;48.876;8.962;2023-07-16T04:23:53;15.90;99.90
10472;DHT22;5283;48.876;8.962;2023-07-16T04:26:20;15.90;99.90
10472;DHT22;5283;48.876;8.962;2023-07-16T04:28:46;15.90;99.90
10472;DHT22;5283;48.876;8.962;2023-07-16T04:31:13;16.00;99.90
10472;DHT22;5283;48.876;8.962;2023-07-16T04:33:40;16.00;99.90
10472;DHT22;5283;48.876;8.962;2023-07-16T04:36:07;16.00;99.90
10472;DHT22;5283;48.876;8.962;2023-07-16T04:38:33;15.90;99.90
10472;DHT22;5283;48.876;8.962;2023-07-16T04:41:00;16.00;99.90
10472;DHT22;5283;48.876;8.962;2023-07-16T04:43:27;16.00;99.90
10472;DHT22;5283;48.876;8.962;2023-07-16T04:45:54;16.00;99.90
10472;DHT22;5283;48.876;8.962;2023-07-16T04:48:20;16.10;99.90
10472;DHT22;5283;48.876;8.962;2023-07-16T04:50:47;16.10;99.90
10472;DHT22;5283;48.876;8.962;2023-07-16T04:53:14;16.10;99.90
10472;DHT22;5283;48.876;8.962;2023-07-16T04:55:44;16.20;99.90
10472;DHT22;5283;48.876;8.962;2023-07-16T04:58:14;16.30;99.90
10472;DHT22;5283;48.876;8.962;2023-07-16T05:00:41;16.30;99.90
10472;DHT22;5283;48.876;8.962;2023-07-16T05:03:08;16.40;99.90
10472;DHT22;5283;48.876;8.962;2023-07-16T05:05:35;16.40;99.90
10472;DHT22;5283;48.876;8.962;2023-07-16T05:08:01;16.40;99.90
10472;DHT22;5283;48.876;8.962;2023-07-16T05:10:28;16.50;99.90
10472;DHT22;5283;48.876;8.962;2023-07-16T05:12:55;16.60;99.90
10472;DHT22;5283;48.876;8.962;2023-07-16T05:15:22;16.60;99.90
10472;DHT22;5283;48.876;8.962;2023-07-16T05:17:48;16.70;99.90
10472;DHT22;5283;48.876;8.962;2023-07-16T05:20:15;16.80;99.90
10472;DHT22;5283;48.876;8.962;2023-07-16T05:22:42;16.90;99.90
10472;DHT22;5283;48.876;8.962;2023-07-16T05:25:09;17.00;99.90
10472;DHT22;5283;48.876;8.962;2023-07-16T05:27:35;17.00;99.90
10472;DHT22;5283;48.876;8.962;2023-07-16T05:30:03;17.20;99.90
10472;DHT22;5283;48.876;8.962;2023-07-16T05:32:30;17.30;99.90
10472;DHT22;5283;48.876;8.962;2023-07-16T05:34:57;17.50;99.90
10472;DHT22;5283;48.876;8.962;2023-07-16T05:37:25;17.50;99.90
10472;DHT22;5283;48.876;8.962;2023-07-16T05:39:52;17.40;99.90
10472;DHT22;5283;48.876;8.962;2023-07-16T05:42:19;17.40;99.90
10472;DHT22;5283;48.876;8.962;2023-07-16T05:44:47;17.60;99.90
10472;DHT22;5283;48.876;8.962;2023-07-16T05:47:14;17.90;99.90
10472;DHT22;5283;48.876;8.962;2023-07-16T05:49:41;18.30;99.90
10472;DHT22;5283;48.876;8.962;2023-07-16T05:52:07;18.70;99.90
10472;DHT22;5283;48.876;8.962;2023-07-16T05:54:36;18.70;99.90
10472;DHT22;5283;48.876;8.962;2023-07-16T05:57:02;18.70;99.90
10472;DHT22;5283;48.876;8.962;2023-07-16T05:59:29;18.80;99.90
10472;DHT22;5283;48.876;8.962;2023-07-16T06:01:56;18.90;99.90
10472;DHT22;5283;48.876;8.962;2023-07-16T06:04:24;18.90;99.90
10472;DHT22;5283;48.876;8.962;2023-07-16T06:06:51;18.70;99.90
10472;DHT22;5283;48.876;8.962;2023-07-16T06:09:18;18.70;99.90
10472;DHT22;5283;48.876;8.962;2023-07-16T06:11:48;18.50;99.90
10472;DHT22;5283;48.876;8.962;2023-07-16T06:14:15;18.60;99.90
10472;DHT22;5283;48.876;8.962;2023-07-16T06:16:42;18.50;99.90
10472;DHT22;5283;48.876;8.962;2023-07-16T06:19:09;18.70;99.90
10472;DHT22;5283;48.876;8.962;2023-07-16T06:21:36;18.90;99.90
10472;DHT22;5283;48.876;8.962;2023-07-16T06:24:02;19.10;99.90
10472;DHT22;5283;48.876;8.962;2023-07-16T06:26:29;19.30;99.90
10472;DHT22;5283;48.876;8.962;2023-07-16T06:28:56;19.40;99.90
10472;DHT22;5283;48.876;8.962;2023-07-16T06:31:23;19.30;99.90
10472;DHT22;5283;48.876;8.962;2023-07-16T06:33:50;19.20;99.90
10472;DHT22;5283;48.876;8.962;2023-07-16T06:36:17;19.00;99.90
10472;DHT22;5283;48.876;8.962;2023-07-16T06:38:44;18.90;99.90
10472;DHT22;5283;48.876;8.962;2023-07-16T06:41:11;19.20;99.90
10472;DHT22;5283;48.876;8.962;2023-07-16T06:43:37;19.40;99.90
10472;DHT22;5283;48.876;8.962;2023-07-16T06:46:04;19.20;99.90
10472;DHT22;5283;48.876;8.962;2023-07-16T06:48:31;19.20;99.90
10472;DHT22;5283;48.876;8.962;2023-07-16T06:50:57;19.40;99.90
10472;DHT22;5283;48.876;8.962;2023-07-16T06:53:24;19.10;99.90
10472;DHT22;5283;48.876;8.962;2023-07-16T06:55:51;19.30;99.90
10472;DHT22;5283;48.876;8.962;2023-07-16T06:58:18;19.30;99.90
10472;DHT22;5283;48.876;8.962;2023-07-16T07:00:45;19.30;99.90
10472;DHT22;5283;48.876;8.962;2023-07-16T07:03:12;19.50;99.90
10472;DHT22;5283;48.876;8.962;2023-07-16T07:05:41;19.70;99.90
10472;DHT22;5283;48.876;8.962;2023-07-16T07:08:08;19.60;99.90
10472;DHT22;5283;48.876;8.962;2023-07-16T07:10:35;19.30;99.90
10472;DHT22;5283;48.876;8.962;2023-07-16T07:13:04;19.20;99.90
10472;DHT22;5283;48.876;8.962;2023-07-16T07:15:31;19.20;99.90
10472;DHT22;5283;48.876;8.962;2023-07-16T07:17:57;19.20;99.90
10472;DHT22;5283;48.876;8.962;2023-07-16T07:20:25;19.30;99.90
10472;DHT22;5283;48.876;8.962;2023-07-16T07:22:51;19.50;99.90
10472;DHT22;5283;48.876;8.962;2023-07-16T07:25:18;19.80;99.90
10472;DHT22;5283;48.876;8.962;2023-07-16T07:27:45;19.80;99.90
10472;DHT22;5283;48.876;8.962;2023-07-16T07:30:13;20.40;99.90
10472;DHT22;5283;48.876;8.962;2023-07-16T07:32:40;20.50;99.90
10472;DHT22;5283;48.876;8.962;2023-07-16T07:35:07;20.80;99.90
10472;DHT22;5283;48.876;8.962;2023-07-16T07:37:33;20.70;99.90
10472;DHT22;5283;48.876;8.962;2023-07-16T07:40:00;20.50;99.90
10472;DHT22;5283;48.876;8.962;2023-07-16T07:42:27;20.70;99.90
10472;DHT22;5283;48.876;8.962;2023-07-16T07:44:55;20.70;99.90
10472;DHT22;5283;48.876;8.962;2023-07-16T07:47:22;20.60;99.90
10472;DHT22;5283;48.876;8.962;2023-07-16T07:49:48;20.80;99.90
10472;DHT22;5283;48.876;8.962;2023-07-16T07:52:15;21.10;99.90
10472;DHT22;5283;48.876;8.962;2023-07-16T07:54:42;21.20;99.90
10472;DHT22;5283;48.876;8.962;2023-07-16T07:57:09;21.30;99.90
10472;DHT22;5283;48.876;8.962;2023-07-16T07:59:35;21.40;99.90
10472;DHT22;5283;48.876;8.962;2023-07-16T08:02:02;21.10;99.90
10472;DHT22;5283;48.876;8.962;2023-07-16T08:04:29;21.10;99.90
10472;DHT22;5283;48.876;8.962;2023-07-16T08:06:58;21.60;99.90
10472;DHT22;5283;48.876;8.962;2023-07-16T08:09:26;22.60;99.90
10472;DHT22;5283;48.876;8.962;2023-07-16T08:11:53;23.10;99.90
10472;DHT22;5283;48.876;8.962;2023-07-16T08:14:19;23.70;99.90
10472;DHT22;5283;48.876;8.962;2023-07-16T08:16:46;23.90;99.90
10472;DHT22;5283;48.876;8.962;2023-07-16T08:19:13;23.70;99.90
10472;DHT22;5283;48.876;8.962;2023-07-16T08:21:40;23.20;99.90
10472;DHT22;5283;48.876;8.962;2023-07-16T08:24:06;22.80;99.90
10472;DHT22;5283;48.876;8.962;2023-07-16T08:26:33;22.00;99.90
10472;DHT22;5283;48.876;8.962;2023-07-16T08:29:00;21.60;99.90
10472;DHT22;5283;48.876;8.962;2023-07-16T08:31:28;21.60;99.90
10472;DHT22;5283;48.876;8.962;2023-07-16T08:33:54;21.60;99.90
10472;DHT22;5283;48.876;8.962;2023-07-16T08:36:21;21.40;99.90
10472;DHT22;5283;48.876;8.962;2023-07-16T08:38:48;21.50;99.90
10472;DHT22;5283;48.876;8.962;2023-07-16T08:41:15;22.20;99.90
10472;DHT22;5283;48.876;8.962;2023-07-16T08:43:44;22.10;99.90
10472;DHT22;5283;48.876;8.962;2023-07-16T08:46:12;21.70;99.90
10472;DHT22;5283;48.876;8.962;2023-07-16T08:48:39;21.20;99.90
10472;DHT22;5283;48.876;8.962;2023-07-16T08:51:06;20.80;99.90
10472;DHT22;5283;48.876;8.962;2023-07-16T08:53:35;20.70;99.90
10472;DHT22;5283;48.876;8.962;2023-07-16T08:56:02;20.70;99.90
10472;DHT22;5283;48.876;8.962;2023-07-16T08:58:32;20.50;99.90
10472;DHT22;5283;48.876;8.962;2023-07-16T09:01:00;20.60;99.90
10472;DHT22;5283;48.876;8.962;2023-07-16T09:03:27;20.70;99.90
10472;DHT22;5283;48.876;8.962;2023-07-16T09:05:55;20.60;99.90
10472;DHT22;5283;48.876;8.962;2023-07-16T09:08:21;20.50;99.90
10472;DHT22;5283;48.876;8.962;2023-07-16T09:10:54;20.80;99.90
10472;DHT22;5283;48.876;8.962;2023-07-16T09:13:22;21.00;99.90
10472;DHT22;5283;48.876;8.962;2023-07-16T09:15:57;21.20;99.90
10472;DHT22;5283;48.876;8.962;2023-07-16T09:18:26;21.30;99.90
10472;DHT22;5283;48.876;8.962;2023-07-16T09:20:57;21.70;99.90
10472;DHT22;5283;48.876;8.962;2023-07-16T09:23:26;22.00;99.90
10472;DHT22;5283;48.876;8.962;2023-07-16T09:25:54;22.20;99.90
10472;DHT22;5283;48.876;8.962;2023-07-16T09:28:21;22.70;99.90
10472;DHT22;5283;48.876;8.962;2023-07-16T09:30:49;23.30;99.90
10472;DHT22;5283;48.876;8.962;2023-07-16T09:33:21;24.00;99.90
10472;DHT22;5283;48.876;8.962;2023-07-16T09:35:50;24.60;99.90
10472;DHT22;5283;48.876;8.962;2023-07-16T09:38:17;24.60;99.90
10472;DHT22;5283;48.876;8.962;2023-07-16T09:40:45;24.20;99.90
10472;DHT22;5283;48.876;8.962;2023-07-16T09:43:12;23.00;99.90
10472;DHT22;5283;48.876;8.962;2023-07-16T09:45:39;23.00;99.90
10472;DHT22;5283;48.876;8.962;2023-07-16T09:48:06;23.20;99.90
10472;DHT22;5283;48.876;8.962;2023-07-16T09:50:34;23.20;99.90
10472;DHT22;5283;48.876;8.962;2023-07-16T09:53:04;23.30;99.90
10472;DHT22;5283;48.876;8.962;2023-07-16T09:55:32;23.40;99.90
10472;DHT22;5283;48.876;8.962;2023-07-16T09:58:06;22.70;99.90
10472;DHT22;5283;48.876;8.962;2023-07-16T10:00:36;22.50;99.90
10472;DHT22;5283;48.876;8.962;2023-07-16T10:03:07;22.40;99.90
10472;DHT22;5283;48.876;8.962;2023-07-16T10:05:36;22.60;99.90
10472;DHT22;5283;48.876;8.962;2023-07-16T10:08:04;22.60;99.90
10472;DHT22;5283;48.876;8.962;2023-07-16T10:10:41;22.80;99.90
10472;DHT22;5283;48.876;8.962;2023-07-16T10:13:12;23.20;99.90
10472;DHT22;5283;48.876;8.962;2023-07-16T10:15:49;23.60;99.90
10472;DHT22;5283;48.876;8.962;2023-07-16T10:18:30;24.00;99.90
10472;DHT22;5283;48.876;8.962;2023-07-16T10:21:11;24.10;99.90
10472;DHT22;5283;48.876;8.962;2023-07-16T10:23:43;23.90;99.90
10472;DHT22;5283;48.876;8.962;2023-07-16T10:26:12;24.30;99.90
10472;DHT22;5283;48.876;8.962;2023-07-16T10:28:40;24.00;99.90
10472;DHT22;5283;48.876;8.962;2023-07-16T10:31:18;23.80;99.90
10472;DHT22;5283;48.876;8.962;2023-07-16T10:34:05;24.40;99.90
10472;DHT22;5283;48.876;8.962;2023-07-16T10:36:39;24.50;99.90
10472;DHT22;5283;48.876;8.962;2023-07-16T10:39:06;24.10;99.90
10472;DHT22;5283;48.876;8.962;2023-07-16T10:41:33;24.30;99.90
10472;DHT22;5283;48.876;8.962;2023-07-16T10:44:01;24.00;99.90
10472;DHT22;5283;48.876;8.962;2023-07-16T10:46:28;23.80;99.90
10472;DHT22;5283;48.876;8.962;2023-07-16T10:48:55;24.20;99.90
10472;DHT22;5283;48.876;8.962;2023-07-16T10:51:26;24.80;99.90
10472;DHT22;5283;48.876;8.962;2023-07-16T10:53:55;25.20;99.90
10472;DHT22;5283;48.876;8.962;2023-07-16T10:56:23;25.30;99.90
10472;DHT22;5283;48.876;8.962;2023-07-16T10:58:49;25.10;99.90
10472;DHT22;5283;48.876;8.962;2023-07-16T11:01:17;24.10;99.90
10472;DHT22;5283;48.876;8.962;2023-07-16T11:03:43;23.70;99.90
10472;DHT22;5283;48.876;8.962;2023-07-16T11:06:11;23.40;99.90
10472;DHT22;5283;48.876;8.962;2023-07-16T11:08:42;23.40;99.90
10472;DHT22;5283;48.876;8.962;2023-07-16T11:11:09;23.50;99.90
10472;DHT22;5283;48.876;8.962;2023-07-16T11:13:35;23.50;99.90
10472;DHT22;5283;48.876;8.962;2023-07-16T11:16:09;23.70;99.90
10472;DHT22;5283;48.876;8.962;2023-07-16T11:18:37;23.60;99.90
10472;DHT22;5283;48.876;8.962;2023-07-16T11:21:04;23.40;99.90
10472;DHT22;5283;48.876;8.962;2023-07-16T11:23:34;23.80;99.90
10472;DHT22;5283;48.876;8.962;2023-07-16T11:26:04;24.50;99.90
10472;DHT22;5283;48.876;8.962;2023-07-16T11:28:41;25.20;99.90
10472;DHT22;5283;48.876;8.962;2023-07-16T11:31:15;25.70;99.90
10472;DHT22;5283;48.876;8.962;2023-07-16T11:33:43;25.60;99.90
10472;DHT22;5283;48.876;8.962;2023-07-16T11:36:10;24.80;99.90
10472;DHT22;5283;48.876;8.962;2023-07-16T11:38:38;24.20;99.90
10472;DHT22;5283;48.876;8.962;2023-07-16T11:41:05;24.10;99.90
10472;DHT22;5283;48.876;8.962;2023-07-16T11:43:35;24.20;99.90
10472;DHT22;5283;48.876;8.962;2023-07-16T11:46:05;24.20;99.90
10472;DHT22;5283;48.876;8.962;2023-07-16T11:48:32;24.30;99.90
10472;DHT22;5283;48.876;8.962;2023-07-16T11:50:59;24.10;99.90
10472;DHT22;5283;48.876;8.962;2023-07-16T11:53:26;24.20;99.90
10472;DHT22;5283;48.876;8.962;2023-07-16T11:55:53;24.50;99.90
10472;DHT22;5283;48.876;8.962;2023-07-16T11:58:20;24.40;99.90
10472;DHT22;5283;48.876;8.962;2023-07-16T12:00:47;24.40;99.90
10472;DHT22;5283;48.876;8.962;2023-07-16T12:03:14;24.70;99.90
10472;DHT22;5283;48.876;8.962;2023-07-16T12:05:41;25.00;99.90
10472;DHT22;5283;48.876;8.962;2023-07-16T12:08:12;25.00;99.90
10472;DHT22;5283;48.876;8.962;2023-07-16T12:10:41;25.00;99.90
10472;DHT22;5283;48.876;8.962;2023-07-16T12:13:07;24.80;99.90
10472;DHT22;5283;48.876;8.962;2023-07-16T12:15:34;24.90;99.90
10472;DHT22;5283;48.876;8.962;2023-07-16T12:18:01;25.00;99.90
10472;DHT22;5283;48.876;8.962;2023-07-16T12:20:28;25.00;99.90
10472;DHT22;5283;48.876;8.962;2023-07-16T12:22:54;24.70;99.90
10472;DHT22;5283;48.876;8.962;2023-07-16T12:25:21;24.50;99.90
10472;DHT22;5283;48.876;8.962;2023-07-16T12:27:48;24.40;99.90
10472;DHT22;5283;48.876;8.962;2023-07-16T12:30:15;24.40;99.90
10472;DHT22;5283;48.876;8.962;2023-07-16T12:32:42;24.50;99.90
10472;DHT22;5283;48.876;8.962;2023-07-16T12:35:09;24.80;99.90
10472;DHT22;5283;48.876;8.962;2023-07-16T12:37:36;25.00;99.90
10472;DHT22;5283;48.876;8.962;2023-07-16T12:40:05;25.40;99.90
10472;DHT22;5283;48.876;8.962;2023-07-16T12:42:32;25.30;99.90
10472;DHT22;5283;48.876;8.962;2023-07-16T12:44:59;25.50;99.90
10472;DHT22;5283;48.876;8.962;2023-07-16T12:47:25;25.60;99.90
10472;DHT22;5283;48.876;8.962;2023-07-16T12:49:52;25.70;99.90
10472;DHT22;5283;48.876;8.962;2023-07-16T12:52:19;25.80;99.90
10472;DHT22;5283;48.876;8.962;2023-07-16T12:54:46;25.90;99.90
10472;DHT22;5283;48.876;8.962;2023-07-16T12:57:12;26.00;99.90
10472;DHT22;5283;48.876;8.962;2023-07-16T12:59:39;26.20;99.90
10472;DHT22;5283;48.876;8.962;2023-07-16T13:02:06;25.90;99.90
10472;DHT22;5283;48.876;8.962;2023-07-16T13:04:33;25.50;99.90
10472;DHT22;5283;48.876;8.962;2023-07-16T13:07:00;25.50;99.90
10472;DHT22;5283;48.876;8.962;2023-07-16T13:09:26;25.50;99.90
10472;DHT22;5283;48.876;8.962;2023-07-16T13:11:53;25.70;99.90
10472;DHT22;5283;48.876;8.962;2023-07-16T13:14:20;26.00;99.90
10472;DHT22;5283;48.876;8.962;2023-07-16T13:16:47;26.00;99.90
10472;DHT22;5283;48.876;8.962;2023-07-16T13:19:13;26.10;99.90
10472;DHT22;5283;48.876;8.962;2023-07-16T13:21:40;26.30;99.90
10472;DHT22;5283;48.876;8.962;2023-07-16T13:24:07;26.30;99.90
10472;DHT22;5283;48.876;8.962;2023-07-16T13:26:34;26.30;99.90
10472;DHT22;5283;48.876;8.962;2023-07-16T13:29:01;26.30;99.90
10472;DHT22;5283;48.876;8.962;2023-07-16T13:31:28;25.90;99.90
10472;DHT22;5283;48.876;8.962;2023-07-16T13:33:55;26.00;99.90
10472;DHT22;5283;48.876;8.962;2023-07-16T13:36:22;26.30;99.90
10472;DHT22;5283;48.876;8.962;2023-07-16T13:38:48;26.10;99.90
10472;DHT22;5283;48.876;8.962;2023-07-16T13:41:15;26.20;99.90
10472;DHT22;5283;48.876;8.962;2023-07-16T13:43:42;26.20;99.90
10472;DHT22;5283;48.876;8.962;2023-07-16T13:46:09;26.20;99.90
10472;DHT22;5283;48.876;8.962;2023-07-16T13:48:35;26.30;99.90
10472;DHT22;5283;48.876;8.962;2023-07-16T13:51:06;26.50;99.90
10472;DHT22;5283;48.876;8.962;2023-07-16T13:53:32;26.40;99.90
10472;DHT22;5283;48.876;8.962;2023-07-16T13:55:59;26.20;99.90
10472;DHT22;5283;48.876;8.962;2023-07-16T13:58:26;26.00;99.90
10472;DHT22;5283;48.876;8.962;2023-07-16T14:00:53;26.10;99.90
10472;DHT22;5283;48.876;8.962;2023-07-16T14:03:20;25.70;99.90
10472;DHT22;5283;48.876;8.962;2023-07-16T14:05:46;25.70;99.90
10472;DHT22;5283;48.876;8.962;2023-07-16T14:08:13;25.30;99.90
10472;DHT22;5283;48.876;8.962;2023-07-16T14:10:40;25.40;99.90
10472;DHT22;5283;48.876;8.962;2023-07-16T14:13:07;25.40;99.90
10472;DHT22;5283;48.876;8.962;2023-07-16T14:15:33;25.50;99.90
10472;DHT22;5283;48.876;8.962;2023-07-16T14:18:00;25.30;99.90
10472;DHT22;5283;48.876;8.962;2023-07-16T14:20:27;25.10;99.90
10472;DHT22;5283;48.876;8.962;2023-07-16T14:22:54;25.10;99.90
10472;DHT22;5283;48.876;8.962;2023-07-16T14:25:20;25.00;99.90
10472;DHT22;5283;48.876;8.962;2023-07-16T14:27:47;24.80;99.90
10472;DHT22;5283;48.876;8.962;2023-07-16T14:30:15;24.80;99.90
10472;DHT22;5283;48.876;8.962;2023-07-16T14:32:41;24.90;99.90
10472;DHT22;5283;48.876;8.962;2023-07-16T14:35:09;24.60;99.90
10472;DHT22;5283;48.876;8.962;2023-07-16T14:37:41;24.70;99.90
10472;DHT22;5283;48.876;8.962;2023-07-16T14:40:08;24.80;99.90
10472;DHT22;5283;48.876;8.962;2023-07-16T14:42:35;24.80;99.90
10472;DHT22;5283;48.876;8.962;2023-07-16T14:45:02;24.50;99.90
10472;DHT22;5283;48.876;8.962;2023-07-16T14:47:31;24.30;99.90
10472;DHT22;5283;48.876;8.962;2023-07-16T14:49:58;24.20;99.90
10472;DHT22;5283;48.876;8.962;2023-07-16T14:52:24;24.10;99.90
10472;DHT22;5283;48.876;8.962;2023-07-16T14:54:51;23.90;99.90
10472;DHT22;5283;48.876;8.962;2023-07-16T14:57:18;23.90;99.90
10472;DHT22;5283;48.876;8.962;2023-07-16T14:59:45;23.80;99.90
10472;DHT22;5283;48.876;8.962;2023-07-16T15:02:12;23.80;99.90
10472;DHT22;5283;48.876;8.962;2023-07-16T15:04:39;23.80;99.90
10472;DHT22;5283;48.876;8.962;2023-07-16T15:07:06;23.80;99.90
10472;DHT22;5283;48.876;8.962;2023-07-16T15:09:32;23.80;99.90
10472;DHT22;5283;48.876;8.962;2023-07-16T15:11:59;24.00;99.90
10472;DHT22;5283;48.876;8.962;2023-07-16T15:14:26;24.40;99.90
10472;DHT22;5283;48.876;8.962;2023-07-16T15:16:53;24.70;99.90
10472;DHT22;5283;48.876;8.962;2023-07-16T15:19:21;24.80;99.90
10472;DHT22;5283;48.876;8.962;2023-07-16T15:21:48;24.70;99.90
10472;DHT22;5283;48.876;8.962;2023-07-16T15:24:14;24.50;99.90
10472;DHT22;5283;48.876;8.962;2023-07-16T15:26:41;24.50;99.90
10472;DHT22;5283;48.876;8.962;2023-07-16T15:29:08;24.30;99.90
10472;DHT22;5283;48.876;8.962;2023-07-16T15:31:35;24.30;99.90
10472;DHT22;5283;48.876;8.962;2023-07-16T15:34:01;24.30;99.90
10472;DHT22;5283;48.876;8.962;2023-07-16T15:36:29;24.20;99.90
10472;DHT22;5283;48.876;8.962;2023-07-16T15:38:55;24.10;99.90
10472;DHT22;5283;48.876;8.962;2023-07-16T15:41:22;24.10;99.90
10472;DHT22;5283;48.876;8.962;2023-07-16T15:43:54;24.00;99.90
10472;DHT22;5283;48.876;8.962;2023-07-16T15:46:21;24.00;99.90
10472;DHT22;5283;48.876;8.962;2023-07-16T15:48:47;24.10;99.90
10472;DHT22;5283;48.876;8.962;2023-07-16T15:51:14;24.30;99.90
10472;DHT22;5283;48.876;8.962;2023-07-16T15:53:42;24.30;99.90
10472;DHT22;5283;48.876;8.962;2023-07-16T15:56:10;24.30;99.90